Time;durP1;ratioP1;P1;durP2;ratioP2;P2;SDS_P1;SDS_P2;PMS_P1;PMS_P2;Temp;Humidity;BMP_temperature;BMP_pressure;BME280_temperature;BME280_humidity;BME280_pressure;Samples;Min_cycle;Max_cycle;Signal;HPM_P1;HPM_P2
2023/04/16 00:02:01;;;;;;;;;;;;;;;;;;5048538;28;19920;-57
2023/04/16 00:04:27;;;;;;;;;;;;;;;;;;5047963;28;19913;-58
2023/04/16 00:06:53;;;;;;;;;;;;;;;;;;5058472;28;20385;-57
2023/04/16 00:09:19;;;;;;;;;;;;;;;;;;5048798;28;20008;-57
2023/04/16 00:11:45;;;;;;;;;;;;;;;;;;5055272;28;20007;-57
2023/04/16 00:14:11;;;;;;;;;;;;;;;;;;5075014;28;20373;-57
2023/04/16 00:16:37;;;;;;;;;;;;;;;;;;5074386;28;20004;-57
2023/04/16 00:19:03;;;;;;;;;;;;;;;;;;5082864;28;19912;-57
2023/04/16 00:21:29;;;;;;;;;;;;;;;;;;5066041;28;20463;-57
2023/04/16 00:23:55;;;;;;;;;;;;;;;;;;5071728;28;19991;-57
2023/04/16 00:26:21;;;;;;;;;;;;;;;;;;5074806;28;19952;-57
2023/04/16 00:28:47;;;;;;;;;;;;;;;;;;5073456;28;19913;-59
2023/04/16 00:31:13;;;;;;;;;;;;;;;;;;5074249;28;19979;-57
2023/04/16 00:33:39;;;;;;;;;;;;;;;;;;5069977;28;19999;-57
2023/04/16 00:36:05;;;;;;;;;;;;;;;;;;5054524;28;20268;-58
2023/04/16 00:38:31;;;;;;;;;;;;;;;;;;5060091;28;19956;-58
2023/04/16 00:40:57;;;;;;;;;;;;;;;;;;5054514;28;19955;-57
2023/04/16 00:43:24;;;;;;;;;;;;;;;;;;5048155;28;19913;-58
2023/04/16 00:45:50;;;;;;;;;;;;;;;;;;5057582;28;20457;-58
2023/04/16 00:48:16;;;;;;;;;;;;;;;;;;5065841;28;20007;-57
2023/04/16 00:50:42;;;;;;;;;;;;;;;;;;5068895;28;19917;-57
2023/04/16 00:53:08;;;;;;;;;;;;;;;;;;5052679;28;19917;-57
2023/04/16 00:55:34;;;;;;;;;;;;;;;;;;5064021;28;20421;-58
2023/04/16 00:58:00;;;;;;;;;;;;;;;;;;5057501;28;19913;-57
2023/04/16 01:00:26;;;;;;;;;;;;;;;;;;5036218;28;19944;-57
2023/04/16 01:02:52;;;;;;;;;;;;;;;;;;5061834;28;20001;-57
2023/04/16 01:05:18;;;;;;;;;;;;;;;;;;5054690;28;19912;-58
2023/04/16 01:07:43;;;;;;;;;;;;;;;;;;5054380;28;19913;-57
2023/04/16 01:10:09;;;;;;;;;;;;;;;;;;5058276;28;19943;-60
2023/04/16 01:12:35;;;;;;;;;;;;;;;;;;5062180;28;20616;-57
2023/04/16 01:15:01;;;;;;;;;;;;;;;;;;5057464;28;19923;-59
2023/04/16 01:17:27;;;;;;;;;;;;;;;;;;5054255;28;19956;-57
2023/04/16 01:19:53;;;;;;;;;;;;;;;;;;5070166;28;19916;-57
2023/04/16 01:22:19;;;;;;;;;;;;;;;;;;5055904;28;20398;-58
2023/04/16 01:24:45;;;;;;;;;;;;;;;;;;5054279;28;19913;-57
2023/04/16 01:27:11;;;;;;;;;;;;;;;;;;5052493;28;19921;-59
2023/04/16 01:29:37;;;;;;;;;;;;;;;;;;5071574;28;20375;-57
2023/04/16 01:32:03;;;;;;;;;;;;;;;;;;5071368;28;20434;-57
2023/04/16 01:34:29;;;;;;;;;;;;;;;;;;5063486;28;19955;-57
2023/04/16 01:36:55;;;;;;;;;;;;;;;;;;5053100;28;19943;-56
2023/04/16 01:39:21;;;;;;;;;;;;;;;;;;5053809;28;19909;-59
2023/04/16 01:41:47;;;;;;;;;;;;;;;;;;5064322;28;20328;-59
2023/04/16 01:44:13;;;;;;;;;;;;;;;;;;5051828;28;19919;-58
2023/04/16 01:46:38;;;;;;;;;;;;;;;;;;5053237;28;20372;-60
2023/04/16 01:49:05;;;;;;;;;;;;;;;;;;5064150;28;19920;-59
2023/04/16 01:51:31;;;;;;;;;;;;;;;;;;5061064;28;19986;-59
2023/04/16 01:53:57;;;;;;;;;;;;;;;;;;5052171;28;19940;-58
2023/04/16 01:56:23;;;;;;;;;;;;;;;;;;5066105;28;19957;-59
2023/04/16 01:58:49;;;;;;;;;;;;;;;;;;5062074;28;20330;-59
2023/04/16 02:01:15;;;;;;;;;;;;;;;;;;5050999;28;19921;-59
2023/04/16 02:03:41;;;;;;;;;;;;;;;;;;5053126;28;19909;-59
2023/04/16 02:06:07;;;;;;;;;;;;;;;;;;5053245;28;19947;-59
2023/04/16 02:08:33;;;;;;;;;;;;;;;;;;5053116;28;20011;-59
2023/04/16 02:10:59;;;;;;;;;;;;;;;;;;5053757;28;20295;-56
2023/04/16 02:13:25;;;;;;;;;;;;;;;;;;5053102;28;20345;-58
2023/04/16 02:15:50;;;;;;;;;;;;;;;;;;5052317;28;19913;-59
2023/04/16 02:18:16;;;;;;;;;;;;;;;;;;5051499;28;19917;-59
2023/04/16 02:20:42;;;;;;;;;;;;;;;;;;5066858;28;19923;-59
2023/04/16 02:23:08;;;;;;;;;;;;;;;;;;5057308;28;19923;-59
2023/04/16 02:25:34;;;;;;;;;;;;;;;;;;5068349;28;20957;-60
2023/04/16 02:28:00;;;;;;;;;;;;;;;;;;5051373;28;19913;-59
2023/04/16 02:30:26;;;;;;;;;;;;;;;;;;5051976;28;19987;-59
2023/04/16 02:32:52;;;;;;;;;;;;;;;;;;5050776;28;19931;-59
2023/04/16 02:35:18;;;;;;;;;;;;;;;;;;5055740;28;19909;-59
2023/04/16 02:37:44;;;;;;;;;;;;;;;;;;5069227;28;19913;-59
2023/04/16 02:40:10;;;;;;;;;;;;;;;;;;5071965;28;20019;-58
2023/04/16 02:42:36;;;;;;;;;;;;;;;;;;5059985;28;19909;-56
2023/04/16 02:45:01;;;;;;;;;;;;;;;;;;5045594;28;19956;-57
2023/04/16 02:47:27;;;;;;;;;;;;;;;;;;5060327;28;20047;-59
2023/04/16 02:49:53;;;;;;;;;;;;;;;;;;5062621;28;20025;-56
2023/04/16 02:52:19;;;;;;;;;;;;;;;;;;5061918;28;19916;-59
2023/04/16 02:54:45;;;;;;;;;;;;;;;;;;5072510;28;19909;-58
2023/04/16 02:57:11;;;;;;;;;;;;;;;;;;5056861;28;19917;-59
2023/04/16 02:59:37;;;;;;;;;;;;;;;;;;5052091;28;20011;-58
2023/04/16 03:02:03;;;;;;;;;;;;;;;;;;5051784;28;20464;-59
2023/04/16 03:04:29;;;;;;;;;;;;;;;;;;5058734;28;19916;-57
2023/04/16 03:06:55;;;;;;;;;;;;;;;;;;5051909;28;19952;-59
2023/04/16 03:09:21;;;;;;;;;;;;;;;;;;5052327;28;20015;-57
2023/04/16 03:11:47;;;;;;;;;;;;;;;;;;5070323;28;19921;-57
2023/04/16 03:14:12;;;;;;;;;;;;;;;;;;5072195;28;19909;-59
2023/04/16 03:16:38;;;;;;;;;;;;;;;;;;5071947;28;19948;-59
2023/04/16 03:19:04;;;;;;;;;;;;;;;;;;5066991;28;19970;-58
2023/04/16 03:21:30;;;;;;;;;;;;;;;;;;5049658;28;20335;-56
2023/04/16 03:23:56;;;;;;;;;;;;;;;;;;5052184;28;19962;-59
2023/04/16 03:26:22;;;;;;;;;;;;;;;;;;5051321;28;19913;-56
2023/04/16 03:28:48;;;;;;;;;;;;;;;;;;5051173;28;20011;-58
2023/04/16 03:31:14;;;;;;;;;;;;;;;;;;5051616;28;19995;-59
2023/04/16 03:33:40;;;;;;;;;;;;;;;;;;5055812;28;20042;-58
2023/04/16 03:36:06;;;;;;;;;;;;;;;;;;5054343;28;19912;-59
2023/04/16 03:38:32;;;;;;;;;;;;;;;;;;5051787;28;19921;-59
2023/04/16 03:40:58;;;;;;;;;;;;;;;;;;5051840;28;20079;-58
2023/04/16 03:43:24;;;;;;;;;;;;;;;;;;5051682;28;19913;-59
2023/04/16 03:45:50;;;;;;;;;;;;;;;;;;5051657;28;20030;-59
2023/04/16 03:48:16;;;;;;;;;;;;;;;;;;5051911;28;19909;-59
2023/04/16 03:50:42;;;;;;;;;;;;;;;;;;5051009;28;19966;-59
2023/04/16 03:53:07;;;;;;;;;;;;;;;;;;5055265;28;20003;-59
2023/04/16 03:55:33;;;;;;;;;;;;;;;;;;5067728;28;19912;-58
2023/04/16 03:58:01;;;;;;;;;;;;;;;;;;5050713;28;19916;-59
2023/04/16 04:00:28;;;;;;;;;;;;;;;;;;5064429;28;19913;-59
2023/04/16 04:02:54;;;;;;;;;;;;;;;;;;5046202;28;21583;-59
2023/04/16 04:05:20;;;;;;;;;;;;;;;;;;5045682;28;19958;-59
2023/04/16 04:07:45;;;;;;;;;;;;;;;;;;5058074;28;20011;-58
2023/04/16 04:10:11;;;;;;;;;;;;;;;;;;5053150;28;20300;-59
2023/04/16 04:12:37;;;;;;;;;;;;;;;;;;5052354;28;19960;-59
2023/04/16 04:15:03;;;;;;;;;;;;;;;;;;5052832;28;20031;-58
2023/04/16 04:17:29;;;;;;;;;;;;;;;;;;5052992;28;19970;-58
2023/04/16 04:19:55;;;;;;;;;;;;;;;;;;5054000;28;20380;-59
2023/04/16 04:22:21;;;;;;;;;;;;;;;;;;5036346;28;19963;-59
2023/04/16 04:24:47;;;;;;;;;;;;;;;;;;5057114;28;20115;-59
2023/04/16 04:27:13;;;;;;;;;;;;;;;;;;5049316;28;19921;-59
2023/04/16 04:29:39;;;;;;;;;;;;;;;;;;5062709;28;19919;-58
2023/04/16 04:32:05;;;;;;;;;;;;;;;;;;5052197;28;20392;-58
2023/04/16 04:34:31;;;;;;;;;;;;;;;;;;5065286;28;19912;-58
2023/04/16 04:36:57;;;;;;;;;;;;;;;;;;5056401;28;19914;-59
2023/04/16 04:39:23;;;;;;;;;;;;;;;;;;5054166;28;20319;-59
2023/04/16 04:41:49;;;;;;;;;;;;;;;;;;5056141;28;20253;-60
2023/04/16 04:44:15;;;;;;;;;;;;;;;;;;5048421;28;19921;-59
2023/04/16 04:46:41;;;;;;;;;;;;;;;;;;5048544;28;20016;-59
2023/04/16 04:49:07;;;;;;;;;;;;;;;;;;5053761;28;20000;-59
2023/04/16 04:51:32;;;;;;;;;;;;;;;;;;5052390;28;20597;-60
2023/04/16 04:53:58;;;;;;;;;;;;;;;;;;5054150;28;19916;-59
2023/04/16 04:56:24;;;;;;;;;;;;;;;;;;5064904;28;20035;-59
2023/04/16 04:58:50;;;;;;;;;;;;;;;;;;5053711;28;19915;-59
2023/04/16 05:01:16;;;;;;;;;;;;;;;;;;5052619;28;19916;-59
2023/04/16 05:03:42;;;;;;;;;;;;;;;;;;5053615;28;19968;-59
2023/04/16 05:06:08;;;;;;;;;;;;;;;;;;5053290;28;20404;-59
2023/04/16 05:08:34;;;;;;;;;;;;;;;;;;5054936;28;19913;-59
2023/04/16 05:11:00;;;;;;;;;;;;;;;;;;5053196;28;19999;-59
2023/04/16 05:13:26;;;;;;;;;;;;;;;;;;5052473;28;19916;-59
2023/04/16 05:15:52;;;;;;;;;;;;;;;;;;5051603;28;20506;-59
2023/04/16 05:18:18;;;;;;;;;;;;;;;;;;5051735;28;20006;-59
2023/04/16 05:20:44;;;;;;;;;;;;;;;;;;5054559;28;19943;-59
2023/04/16 05:23:10;;;;;;;;;;;;;;;;;;5054997;28;19973;-59
2023/04/16 05:25:35;;;;;;;;;;;;;;;;;;5059715;28;19963;-59
2023/04/16 05:28:01;;;;;;;;;;;;;;;;;;5054821;28;19970;-59
2023/04/16 05:30:27;;;;;;;;;;;;;;;;;;5052692;28;19909;-59
2023/04/16 05:32:53;;;;;;;;;;;;;;;;;;5051074;28;20005;-59
2023/04/16 05:35:19;;;;;;;;;;;;;;;;;;5051612;28;19913;-59
2023/04/16 05:37:45;;;;;;;;;;;;;;;;;;5052396;28;19920;-59
2023/04/16 05:40:11;;;;;;;;;;;;;;;;;;5052108;28;19935;-56
2023/04/16 05:42:37;;;;;;;;;;;;;;;;;;5053191;28;19916;-59
2023/04/16 05:45:03;;;;;;;;;;;;;;;;;;5060975;28;19915;-60
2023/04/16 05:47:29;;;;;;;;;;;;;;;;;;5052345;28;19954;-59
2023/04/16 05:49:55;;;;;;;;;;;;;;;;;;5049258;28;20036;-59
2023/04/16 05:52:21;;;;;;;;;;;;;;;;;;5051094;28;20445;-59
2023/04/16 05:54:47;;;;;;;;;;;;;;;;;;5054647;28;20361;-59
2023/04/16 05:57:13;;;;;;;;;;;;;;;;;;5054975;28;19949;-60
2023/04/16 05:59:39;;;;;;;;;;;;;;;;;;5051332;28;19912;-59
2023/04/16 06:02:05;;;;;;;;;;;;;;;;;;5064341;28;19969;-59
2023/04/16 06:04:31;;;;;;;;;;;;;;;;;;5054861;28;19959;-59
2023/04/16 06:06:56;;;;;;;;;;;;;;;;;;5064505;28;20004;-59
2023/04/16 06:09:23;;;;;;;;;;;;;;;;;;5052098;28;19952;-59
2023/04/16 06:11:49;;;;;;;;;;;;;;;;;;5051576;28;19927;-59
2023/04/16 06:14:15;;;;;;;;;;;;;;;;;;5051864;28;19913;-59
2023/04/16 06:16:41;;;;;;;;;;;;;;;;;;5051067;28;20008;-60
2023/04/16 06:19:07;;;;;;;;;;;;;;;;;;5051919;28;19913;-60
2023/04/16 06:21:33;;;;;;;;;;;;;;;;;;5050565;28;19959;-59
2023/04/16 06:23:59;;;;;;;;;;;;;;;;;;5048517;28;20416;-59
2023/04/16 06:26:25;;;;;;;;;;;;;;;;;;5047735;28;19960;-59
2023/04/16 06:28:51;;;;;;;;;;;;;;;;;;5051519;28;19940;-59
2023/04/16 06:31:17;;;;;;;;;;;;;;;;;;5053324;28;20376;-59
2023/04/16 06:33:43;;;;;;;;;;;;;;;;;;5055411;28;20316;-59
2023/04/16 06:36:10;;;;;;;;;;;;;;;;;;5056888;28;19948;-59
2023/04/16 06:38:36;;;;;;;;;;;;;;;;;;5046329;28;19923;-59
2023/04/16 06:41:02;;;;;;;;;;;;;;;;;;5051020;28;19955;-59
2023/04/16 06:43:28;;;;;;;;;;;;;;;;;;5049592;28;19920;-59
2023/04/16 06:45:55;;;;;;;;;;;;;;;;;;5052995;28;19958;-59
2023/04/16 06:48:21;;;;;;;;;;;;;;;;;;5052676;28;19913;-58
2023/04/16 06:50:46;;;;;;;;;;;;;;;;;;5048678;28;19959;-59
2023/04/16 06:53:12;;;;;;;;;;;;;;;;;;5049344;28;20381;-58
2023/04/16 06:55:38;;;;;;;;;;;;;;;;;;5051523;28;19919;-58
2023/04/16 06:58:04;;;;;;;;;;;;;;;;;;5059104;28;20011;-58
2023/04/16 07:00:30;;;;;;;;;;;;;;;;;;5049917;28;19969;-59
2023/04/16 07:02:56;;;;;;;;;;;;;;;;;;5047675;28;19954;-59
2023/04/16 07:05:22;;;;;;;;;;;;;;;;;;5051858;28;20436;-59
2023/04/16 07:07:48;;;;;;;;;;;;;;;;;;5050160;28;20016;-59
2023/04/16 07:10:14;;;;;;;;;;;;;;;;;;5051143;28;19909;-59
2023/04/16 07:12:40;;;;;;;;;;;;;;;;;;5050973;28;19928;-59
2023/04/16 07:15:05;;;;;;;;;;;;;;;;;;5051738;28;19990;-59
2023/04/16 07:17:31;;;;;;;;;;;;;;;;;;5050371;28;19971;-59
2023/04/16 07:19:57;;;;;;;;;;;;;;;;;;5046487;28;19987;-59
2023/04/16 07:22:23;;;;;;;;;;;;;;;;;;5049565;28;19916;-59
2023/04/16 07:24:49;;;;;;;;;;;;;;;;;;5049246;28;19959;-58
2023/04/16 07:27:15;;;;;;;;;;;;;;;;;;5050619;28;19948;-58
2023/04/16 07:29:42;;;;;;;;;;;;;;;;;;5058452;28;19916;-59
2023/04/16 07:32:07;;;;;;;;;;;;;;;;;;5051917;28;19924;-59
2023/04/16 07:34:33;;;;;;;;;;;;;;;;;;5051918;28;19960;-60
2023/04/16 07:36:59;;;;;;;;;;;;;;;;;;5051480;28;19959;-60
2023/04/16 07:39:25;;;;;;;;;;;;;;;;;;5056947;28;19916;-59
2023/04/16 07:41:51;;;;;;;;;;;;;;;;;;5054237;28;19912;-59
2023/04/16 07:44:17;;;;;;;;;;;;;;;;;;5045840;28;20003;-59
2023/04/16 07:46:43;;;;;;;;;;;;;;;;;;5056868;28;19913;-59
2023/04/16 07:49:09;;;;;;;;;;;;;;;;;;5054846;28;19951;-58
2023/04/16 07:51:35;;;;;;;;;;;;;;;;;;5053458;28;19917;-59
2023/04/16 07:54:01;;;;;;;;;;;;;;;;;;5053665;28;19913;-59
2023/04/16 07:56:27;;;;;;;;;;;;;;;;;;5053746;28;19912;-59
2023/04/16 07:58:53;;;;;;;;;;;;;;;;;;5054725;28;19916;-59
2023/04/16 08:01:19;;;;;;;;;;;;;;;;;;5057182;28;19913;-59
2023/04/16 08:03:45;;;;;;;;;;;;;;;;;;5055196;28;19982;-59
2023/04/16 08:06:11;;;;;;;;;;;;;;;;;;5059189;28;19961;-58
2023/04/16 08:08:36;;;;;;;;;;;;;;;;;;5053164;28;19999;-60
2023/04/16 08:11:02;;;;;;;;;;;;;;;;;;5052532;28;19919;-59
2023/04/16 08:13:28;;;;;;;;;;;;;;;;;;5058412;28;20619;-59
2023/04/16 08:15:54;;;;;;;;;;;;;;;;;;5066617;28;19921;-59
2023/04/16 08:18:20;;;;;;;;;;;;;;;;;;5053467;28;19958;-58
2023/04/16 08:20:46;;;;;;;;;;;;;;;;;;5063269;28;19960;-59
2023/04/16 08:23:12;;;;;;;;;;;;;;;;;;5051642;28;19917;-59
2023/04/16 08:25:38;;;;;;;;;;;;;;;;;;5054563;28;20398;-58
2023/04/16 08:28:04;;;;;;;;;;;;;;;;;;5059405;28;19963;-59
2023/04/16 08:30:30;;;;;;;;;;;;;;;;;;5052531;28;19956;-59
2023/04/16 08:32:55;;;;;;;;;;;;;;;;;;5051363;28;19924;-59
2023/04/16 08:35:21;;;;;;;;;;;;;;;;;;5060167;28;19916;-59
2023/04/16 08:37:47;;;;;;;;;;;;;;;;;;5053868;28;19955;-59
2023/04/16 08:40:13;;;;;;;;;;;;;;;;;;5053500;28;20313;-59
2023/04/16 08:42:40;;;;;;;;;;;;;;;;;;5052364;28;20006;-59
2023/04/16 08:45:06;;;;;;;;;;;;;;;;;;5056116;28;20047;-59
2023/04/16 08:47:32;;;;;;;;;;;;;;;;;;5046374;28;19913;-59
2023/04/16 08:49:58;;;;;;;;;;;;;;;;;;5033382;28;19919;-58
2023/04/16 08:52:24;;;;;;;;;;;;;;;;;;5053560;28;20396;-59
2023/04/16 08:54:50;;;;;;;;;;;;;;;;;;5053154;28;19917;-58
2023/04/16 08:57:16;;;;;;;;;;;;;;;;;;5053822;28;19999;-59
2023/04/16 08:59:42;;;;;;;;;;;;;;;;;;5051901;28;19952;-60
2023/04/16 09:02:08;;;;;;;;;;;;;;;;;;5055282;28;20506;-58
2023/04/16 09:04:34;;;;;;;;;;;;;;;;;;5054112;28;19917;-59
2023/04/16 09:07:00;;;;;;;;;;;;;;;;;;5053242;28;19955;-59
2023/04/16 09:09:26;;;;;;;;;;;;;;;;;;5053180;28;20003;-59
2023/04/16 09:11:52;;;;;;;;;;;;;;;;;;5064588;28;20439;-59
2023/04/16 09:14:18;;;;;;;;;;;;;;;;;;5049929;28;19966;-59
2023/04/16 09:16:44;;;;;;;;;;;;;;;;;;5052519;28;19913;-59
2023/04/16 09:19:13;;;;;;;;;;;;;;;;;;5052636;28;20043;-59
2023/04/16 09:21:38;;;;;;;;;;;;;;;;;;5048971;28;19912;-62
2023/04/16 09:24:04;;;;;;;;;;;;;;;;;;5052454;28;20380;-63
2023/04/16 09:26:30;;;;;;;;;;;;;;;;;;5053061;28;19955;-62
2023/04/16 09:28:56;;;;;;;;;;;;;;;;;;5052781;28;19909;-62
2023/04/16 09:31:22;;;;;;;;;;;;;;;;;;5053012;28;19919;-62
2023/04/16 09:33:48;;;;;;;;;;;;;;;;;;5052936;28;19909;-62
2023/04/16 09:36:14;;;;;;;;;;;;;;;;;;5051791;28;19919;-62
2023/04/16 09:38:40;;;;;;;;;;;;;;;;;;5033441;28;20377;-63
2023/04/16 09:41:07;;;;;;;;;;;;;;;;;;5049558;28;19987;-62
2023/04/16 09:43:32;;;;;;;;;;;;;;;;;;5059219;28;20280;-63
2023/04/16 09:45:58;;;;;;;;;;;;;;;;;;5050495;28;19999;-63
2023/04/16 09:48:24;;;;;;;;;;;;;;;;;;5040778;28;19962;-62
2023/04/16 09:50:50;;;;;;;;;;;;;;;;;;5049326;28;20027;-63
2023/04/16 09:53:16;;;;;;;;;;;;;;;;;;5047570;28;19916;-62
2023/04/16 09:55:42;;;;;;;;;;;;;;;;;;5044963;28;19921;-63
2023/04/16 09:58:08;;;;;;;;;;;;;;;;;;5043690;28;19996;-63
2023/04/16 10:00:34;;;;;;;;;;;;;;;;;;5048786;28;19928;-62
2023/04/16 10:03:00;;;;;;;;;;;;;;;;;;5048028;28;19916;-62
2023/04/16 10:05:26;;;;;;;;;;;;;;;;;;5049777;28;20352;-63
2023/04/16 10:07:52;;;;;;;;;;;;;;;;;;5045565;28;20000;-62
2023/04/16 10:10:17;;;;;;;;;;;;;;;;;;5047633;28;19951;-63
2023/04/16 10:12:43;;;;;;;;;;;;;;;;;;5050020;28;20287;-62
2023/04/16 10:15:09;;;;;;;;;;;;;;;;;;5044430;28;19955;-62
2023/04/16 10:17:35;;;;;;;;;;;;;;;;;;5045738;28;19999;-62
2023/04/16 10:20:01;;;;;;;;;;;;;;;;;;5051397;28;19916;-62
2023/04/16 10:22:27;;;;;;;;;;;;;;;;;;5049493;28;19955;-63
2023/04/16 10:24:53;;;;;;;;;;;;;;;;;;5048446;28;19943;-62
2023/04/16 10:27:19;;;;;;;;;;;;;;;;;;5048890;28;20290;-62
2023/04/16 10:29:45;;;;;;;;;;;;;;;;;;5050442;28;19916;-63
2023/04/16 10:32:11;;;;;;;;;;;;;;;;;;5051618;28;19964;-63
2023/04/16 10:34:37;;;;;;;;;;;;;;;;;;5050212;28;19966;-63
2023/04/16 10:37:03;;;;;;;;;;;;;;;;;;5050524;28;20391;-62
2023/04/16 10:39:29;;;;;;;;;;;;;;;;;;5048274;28;19912;-62
2023/04/16 10:41:55;;;;;;;;;;;;;;;;;;5046077;28;19916;-63
2023/04/16 10:44:20;;;;;;;;;;;;;;;;;;5048822;28;19963;-63
2023/04/16 10:46:49;;;;;;;;;;;;;;;;;;5039425;28;19912;-62
2023/04/16 10:49:16;;;;;;;;;;;;;;;;;;5036638;28;19931;-63
2023/04/16 10:51:42;;;;;;;;;;;;;;;;;;5049930;28;19963;-62
2023/04/16 10:54:10;;;;;;;;;;;;;;;;;;5042782;28;20376;-62
2023/04/16 10:56:35;;;;;;;;;;;;;;;;;;5045880;28;20269;-62
2023/04/16 10:59:01;;;;;;;;;;;;;;;;;;5049617;28;19960;-62
2023/04/16 11:01:27;;;;;;;;;;;;;;;;;;5044201;28;20007;-62
2023/04/16 11:03:53;;;;;;;;;;;;;;;;;;5047912;28;19916;-62
2023/04/16 11:06:19;;;;;;;;;;;;;;;;;;5049907;28;19916;-62
2023/04/16 11:08:45;;;;;;;;;;;;;;;;;;5048527;28;19913;-63
2023/04/16 11:11:11;;;;;;;;;;;;;;;;;;5050155;28;19913;-62
2023/04/16 11:13:37;;;;;;;;;;;;;;;;;;5045511;28;20001;-62
2023/04/16 11:16:03;;;;;;;;;;;;;;;;;;5046222;28;19959;-63
2023/04/16 11:18:29;;;;;;;;;;;;;;;;;;5042166;28;19997;-63
2023/04/16 11:20:55;;;;;;;;;;;;;;;;;;5044800;28;19975;-63
2023/04/16 11:23:20;;;;;;;;;;;;;;;;;;5039888;28;20704;-63
2023/04/16 11:25:46;;;;;;;;;;;;;;;;;;5046465;28;20011;-63
2023/04/16 11:28:12;;;;;;;;;;;;;;;;;;5035011;28;20017;-63
2023/04/16 11:30:38;;;;;;;;;;;;;;;;;;5034128;28;19965;-63
2023/04/16 11:33:04;;;;;;;;;;;;;;;;;;5033639;28;19917;-63
2023/04/16 11:35:31;;;;;;;;;;;;;;;;;;5037463;28;20002;-63
2023/04/16 11:37:57;;;;;;;;;;;;;;;;;;5038515;28;19924;-63
2023/04/16 11:40:22;;;;;;;;;;;;;;;;;;5048630;28;19913;-62
2023/04/16 11:42:48;;;;;;;;;;;;;;;;;;5046239;28;19923;-63
2023/04/16 11:45:14;;;;;;;;;;;;;;;;;;5050477;28;19951;-62
2023/04/16 11:47:40;;;;;;;;;;;;;;;;;;5040541;28;20386;-62
2023/04/16 11:50:06;;;;;;;;;;;;;;;;;;5021895;28;19992;-63
2023/04/16 11:52:32;;;;;;;;;;;;;;;;;;5047996;28;19927;-62
2023/04/16 11:54:58;;;;;;;;;;;;;;;;;;5050850;28;19908;-62
2023/04/16 11:57:24;;;;;;;;;;;;;;;;;;5048781;28;19959;-62
2023/04/16 11:59:50;;;;;;;;;;;;;;;;;;5041647;28;20015;-63
2023/04/16 12:02:16;;;;;;;;;;;;;;;;;;5048016;28;20396;-62
2023/04/16 12:04:42;;;;;;;;;;;;;;;;;;5046854;28;20008;-63
2023/04/16 12:07:08;;;;;;;;;;;;;;;;;;5049645;28;19909;-63
2023/04/16 12:09:34;;;;;;;;;;;;;;;;;;5051511;28;19913;-63
2023/04/16 12:12:01;;;;;;;;;;;;;;;;;;5047616;28;21783;-63
2023/04/16 12:14:27;;;;;;;;;;;;;;;;;;5049292;28;19913;-63
2023/04/16 12:16:53;;;;;;;;;;;;;;;;;;5045121;28;19962;-63
2023/04/16 12:19:19;;;;;;;;;;;;;;;;;;5043957;28;19917;-63
2023/04/16 12:21:45;;;;;;;;;;;;;;;;;;5046518;28;20417;-62
2023/04/16 12:24:12;;;;;;;;;;;;;;;;;;5052538;28;19952;-63
2023/04/16 12:26:38;;;;;;;;;;;;;;;;;;5043548;28;19920;-63
2023/04/16 12:29:04;;;;;;;;;;;;;;;;;;5037388;28;19917;-62
2023/04/16 12:31:30;;;;;;;;;;;;;;;;;;5040198;28;19962;-63
2023/04/16 12:33:56;;;;;;;;;;;;;;;;;;5050574;28;19928;-63
2023/04/16 12:36:23;;;;;;;;;;;;;;;;;;5041341;28;19944;-62
2023/04/16 12:38:49;;;;;;;;;;;;;;;;;;5048265;28;19913;-63
2023/04/16 12:41:15;;;;;;;;;;;;;;;;;;5043130;28;20415;-62
2023/04/16 12:43:41;;;;;;;;;;;;;;;;;;5035198;28;19912;-62
2023/04/16 12:46:07;;;;;;;;;;;;;;;;;;5049941;28;19983;-63
2023/04/16 12:48:33;;;;;;;;;;;;;;;;;;5042659;28;19917;-63
2023/04/16 12:50:59;;;;;;;;;;;;;;;;;;5044882;28;19963;-63
2023/04/16 12:53:26;;;;;;;;;;;;;;;;;;5049801;28;20074;-63
2023/04/16 12:55:51;;;;;;;;;;;;;;;;;;5046698;28;19995;-63
2023/04/16 12:58:17;;;;;;;;;;;;;;;;;;5047934;28;20066;-63
2023/04/16 13:00:43;;;;;;;;;;;;;;;;;;5041313;28;19967;-64
2023/04/16 13:03:09;;;;;;;;;;;;;;;;;;5042124;28;19913;-63
2023/04/16 13:05:35;;;;;;;;;;;;;;;;;;5052682;28;19976;-63
2023/04/16 13:08:01;;;;;;;;;;;;;;;;;;5047381;28;19949;-62
2023/04/16 13:10:27;;;;;;;;;;;;;;;;;;5049433;28;20000;-63
2023/04/16 13:12:53;;;;;;;;;;;;;;;;;;5044929;28;19964;-63
2023/04/16 13:15:19;;;;;;;;;;;;;;;;;;5047714;28;20009;-63
2023/04/16 13:17:45;;;;;;;;;;;;;;;;;;5049435;28;20011;-63
2023/04/16 13:20:11;;;;;;;;;;;;;;;;;;5038299;28;19917;-63
2023/04/16 13:22:36;;;;;;;;;;;;;;;;;;5051259;28;20300;-63
2023/04/16 13:25:02;;;;;;;;;;;;;;;;;;5049846;28;20325;-63
2023/04/16 13:27:30;;;;;;;;;;;;;;;;;;5052314;28;20012;-63
2023/04/16 13:29:56;;;;;;;;;;;;;;;;;;5049823;28;19916;-63
2023/04/16 13:32:22;;;;;;;;;;;;;;;;;;5048969;28;19927;-63
2023/04/16 13:34:48;;;;;;;;;;;;;;;;;;5052771;28;19909;-63
2023/04/16 13:37:14;;;;;;;;;;;;;;;;;;5051186;28;20383;-63
2023/04/16 13:39:40;;;;;;;;;;;;;;;;;;5052340;28;19996;-63
2023/04/16 13:42:06;;;;;;;;;;;;;;;;;;5054904;28;19979;-63
2023/04/16 13:44:32;;;;;;;;;;;;;;;;;;5060586;28;19924;-63
2023/04/16 13:46:58;;;;;;;;;;;;;;;;;;5048390;28;19944;-63
2023/04/16 13:49:23;;;;;;;;;;;;;;;;;;5049561;28;19916;-63
2023/04/16 13:51:49;;;;;;;;;;;;;;;;;;5038468;28;19920;-63
2023/04/16 13:54:15;;;;;;;;;;;;;;;;;;5045901;28;19972;-63
2023/04/16 13:56:41;;;;;;;;;;;;;;;;;;5047980;28;20452;-63
2023/04/16 13:59:07;;;;;;;;;;;;;;;;;;5043802;28;19919;-63
2023/04/16 14:01:33;;;;;;;;;;;;;;;;;;5048354;28;20333;-63
2023/04/16 14:04:00;;;;;;;;;;;;;;;;;;5046856;28;20347;-63
2023/04/16 14:06:26;;;;;;;;;;;;;;;;;;5045479;28;19960;-63
2023/04/16 14:08:52;;;;;;;;;;;;;;;;;;5062015;28;19959;-63
2023/04/16 14:11:18;;;;;;;;;;;;;;;;;;5049758;28;19976;-63
2023/04/16 14:13:44;;;;;;;;;;;;;;;;;;5050317;28;19998;-63
2023/04/16 14:16:10;;;;;;;;;;;;;;;;;;5048008;28;20369;-63
2023/04/16 14:18:41;;;;;;;;;;;;;;;;;;5051147;28;19998;-63
2023/04/16 14:21:06;;;;;;;;;;;;;;;;;;5056100;28;19936;-63
2023/04/16 14:23:32;;;;;;;;;;;;;;;;;;5043249;28;20392;-63
2023/04/16 14:25:58;;;;;;;;;;;;;;;;;;5047216;28;20053;-63
2023/04/16 14:28:24;;;;;;;;;;;;;;;;;;5054013;28;19916;-63
2023/04/16 14:30:50;;;;;;;;;;;;;;;;;;5050748;28;19912;-63
2023/04/16 14:33:16;;;;;;;;;;;;;;;;;;5050747;28;20376;-63
2023/04/16 14:35:42;;;;;;;;;;;;;;;;;;5044523;28;19920;-63
2023/04/16 14:38:08;;;;;;;;;;;;;;;;;;5049468;28;20337;-63
2023/04/16 14:40:34;;;;;;;;;;;;;;;;;;5045053;28;19921;-63
2023/04/16 14:43:00;;;;;;;;;;;;;;;;;;5046169;28;19960;-63
2023/04/16 14:45:27;;;;;;;;;;;;;;;;;;5045407;28;19963;-63
2023/04/16 14:47:53;;;;;;;;;;;;;;;;;;5045311;28;19959;-63
2023/04/16 14:50:19;;;;;;;;;;;;;;;;;;5043391;28;20404;-63
2023/04/16 14:52:45;;;;;;;;;;;;;;;;;;5045470;28;19926;-63
2023/04/16 14:55:11;;;;;;;;;;;;;;;;;;5039456;28;19955;-63
2023/04/16 14:57:37;;;;;;;;;;;;;;;;;;5033536;28;19948;-63
2023/04/16 15:00:06;;;;;;;;;;;;;;;;;;5032269;28;19959;-63
2023/04/16 15:02:32;;;;;;;;;;;;;;;;;;5042778;28;19913;-63
2023/04/16 15:04:58;;;;;;;;;;;;;;;;;;5050730;28;20008;-63
2023/04/16 15:07:25;;;;;;;;;;;;;;;;;;5051298;28;19923;-63
2023/04/16 15:09:51;;;;;;;;;;;;;;;;;;5050466;28;19999;-63
2023/04/16 15:12:16;;;;;;;;;;;;;;;;;;5048382;28;20066;-63
2023/04/16 15:14:42;;;;;;;;;;;;;;;;;;5045008;28;19920;-63
2023/04/16 15:17:08;;;;;;;;;;;;;;;;;;5045837;28;20374;-63
2023/04/16 15:19:34;;;;;;;;;;;;;;;;;;5048976;28;19995;-63
2023/04/16 15:22:00;;;;;;;;;;;;;;;;;;5054508;28;19912;-63
2023/04/16 15:24:26;;;;;;;;;;;;;;;;;;5048669;28;19970;-63
2023/04/16 15:26:52;;;;;;;;;;;;;;;;;;5049809;28;20420;-63
2023/04/16 15:29:18;;;;;;;;;;;;;;;;;;5050888;28;19994;-63
2023/04/16 15:31:44;;;;;;;;;;;;;;;;;;5040869;28;19917;-63
2023/04/16 15:34:10;;;;;;;;;;;;;;;;;;5039355;28;19925;-63
2023/04/16 15:36:36;;;;;;;;;;;;;;;;;;5050441;28;19927;-63
2023/04/16 15:39:02;;;;;;;;;;;;;;;;;;5050731;28;20311;-63
2023/04/16 15:41:28;;;;;;;;;;;;;;;;;;5048790;28;19948;-63
2023/04/16 15:43:54;;;;;;;;;;;;;;;;;;5043665;28;19948;-63
2023/04/16 15:46:20;;;;;;;;;;;;;;;;;;5045014;28;20455;-63
2023/04/16 15:48:46;;;;;;;;;;;;;;;;;;5045949;28;20058;-63
2023/04/16 15:51:12;;;;;;;;;;;;;;;;;;5042661;28;19945;-63
2023/04/16 15:53:38;;;;;;;;;;;;;;;;;;5050747;28;19913;-63
2023/04/16 15:56:04;;;;;;;;;;;;;;;;;;5050100;28;19959;-63
2023/04/16 15:58:30;;;;;;;;;;;;;;;;;;5054189;28;19912;-63
2023/04/16 16:00:56;;;;;;;;;;;;;;;;;;5047290;28;20364;-63
2023/04/16 16:03:22;;;;;;;;;;;;;;;;;;5034230;28;19952;-63
2023/04/16 16:05:48;;;;;;;;;;;;;;;;;;5047372;28;19955;-63
2023/04/16 16:08:14;;;;;;;;;;;;;;;;;;5050451;28;19959;-63
2023/04/16 16:10:40;;;;;;;;;;;;;;;;;;5050998;28;19920;-63
2023/04/16 16:13:06;;;;;;;;;;;;;;;;;;5047929;28;19925;-63
2023/04/16 16:15:32;;;;;;;;;;;;;;;;;;5052529;28;20391;-63
2023/04/16 16:17:58;;;;;;;;;;;;;;;;;;5039698;28;19927;-63
2023/04/16 16:20:24;;;;;;;;;;;;;;;;;;5046899;28;19912;-63
2023/04/16 16:22:53;;;;;;;;;;;;;;;;;;5053300;28;19935;-63
2023/04/16 16:25:20;;;;;;;;;;;;;;;;;;5047502;28;19952;-63
2023/04/16 16:27:45;;;;;;;;;;;;;;;;;;5047078;28;19917;-63
2023/04/16 16:30:11;;;;;;;;;;;;;;;;;;5045514;28;19966;-63
2023/04/16 16:32:39;;;;;;;;;;;;;;;;;;5052372;28;20331;-63
2023/04/16 16:35:05;;;;;;;;;;;;;;;;;;5042803;28;19917;-63
2023/04/16 16:37:31;;;;;;;;;;;;;;;;;;5047234;28;20000;-63